createdAt,value
2023-05-14T00:00:17.319Z,0.0000
2023-05-14T00:01:17.321Z,0.0000
2023-05-14T00:02:17.908Z,0.0000
2023-05-14T00:03:18.917Z,0.0000
2023-05-14T00:04:19.840Z,0.0000
2023-05-14T00:05:20.084Z,0.0000
2023-05-14T00:06:20.242Z,0.0000
2023-05-14T00:07:20.556Z,0.0000
2023-05-14T00:08:21.526Z,0.0000
2023-05-14T00:09:22.686Z,0.0000
2023-05-14T00:10:23.545Z,0.0000
2023-05-14T00:11:24.233Z,0.0000
2023-05-14T00:12:24.372Z,0.0000
2023-05-14T00:13:24.660Z,0.0000
2023-05-14T00:14:24.793Z,0.0000
2023-05-14T00:15:25.832Z,0.0000
2023-05-14T00:16:27.152Z,0.0000
2023-05-14T00:17:28.023Z,0.0000
2023-05-14T00:18:28.823Z,0.0000
2023-05-14T00:20:49.517Z,0.0000
2023-05-14T00:28:56.742Z,0.0000
2023-05-14T00:30:56.408Z,0.0000
2023-05-14T00:31:56.357Z,0.0000
2023-05-14T00:32:57.275Z,0.0000
2023-05-14T00:33:58.144Z,0.0000
2023-05-14T00:34:59.520Z,0.0000
2023-05-14T00:36:00.418Z,0.0000
2023-05-14T00:37:01.105Z,0.0000
2023-05-14T00:38:01.593Z,0.0000
2023-05-14T00:39:02.495Z,0.0000
2023-05-14T00:40:03.138Z,0.0000
2023-05-14T00:41:03.512Z,0.0000
2023-05-14T00:45:05.218Z,0.0000
2023-05-14T00:46:05.498Z,0.0000
2023-05-14T00:47:07.273Z,0.0000
2023-05-14T00:48:07.938Z,0.0000
2023-05-14T00:49:08.270Z,0.0000
2023-05-14T00:50:09.275Z,0.0000
2023-05-14T00:51:09.862Z,0.0000
2023-05-14T00:52:09.992Z,0.0000
2023-05-14T00:53:10.149Z,0.0000
2023-05-14T00:54:11.656Z,0.0000
2023-05-14T01:00:16.664Z,0.0000
2023-05-14T01:05:18.474Z,0.0000
2023-05-14T01:14:22.885Z,0.0000
2023-05-14T01:15:23.354Z,0.0000
2023-05-14T01:16:23.838Z,0.0000
2023-05-14T01:17:24.969Z,0.0000
2023-05-14T01:18:24.991Z,0.0000
2023-05-14T01:19:26.197Z,0.0000
2023-05-14T01:20:27.644Z,0.0000
2023-05-14T01:21:27.913Z,0.0000
2023-05-14T01:22:29.119Z,0.0000
2023-05-14T01:35:33.132Z,0.0000
2023-05-14T01:37:33.275Z,0.0000
2023-05-14T01:38:34.218Z,0.0000
2023-05-14T01:40:35.200Z,0.0000
2023-05-14T01:41:36.115Z,0.0000
2023-05-14T01:42:37.250Z,0.0000
2023-05-14T01:43:37.475Z,0.0000
2023-05-14T01:44:37.841Z,0.0000
2023-05-14T01:51:41.113Z,0.0000
2023-05-14T01:59:46.509Z,0.0000
2023-05-14T02:00:46.550Z,0.0000
2023-05-14T02:02:49.765Z,0.0000
2023-05-14T02:03:50.147Z,0.0000
2023-05-14T02:05:53.668Z,0.0000
2023-05-14T02:07:54.512Z,0.0000
2023-05-14T02:08:54.857Z,0.0000
2023-05-14T02:09:56.006Z,0.0000
2023-05-14T02:10:57.047Z,0.0000
2023-05-14T02:11:57.378Z,0.0000
2023-05-14T02:12:57.452Z,0.0000
2023-05-14T02:13:57.829Z,0.0000
2023-05-14T02:14:59.042Z,0.0000
2023-05-14T02:20:02.134Z,0.0000
2023-05-14T02:21:02.938Z,0.0000
2023-05-14T02:22:03.789Z,0.0000
2023-05-14T02:23:03.908Z,0.0000
2023-05-14T02:24:05.174Z,0.0000
2023-05-14T02:25:05.860Z,0.0000
2023-05-14T02:26:06.912Z,0.0000
2023-05-14T02:35:15.101Z,0.0000
2023-05-14T02:36:14.541Z,0.0000
2023-05-14T02:37:14.888Z,0.0000
2023-05-14T02:38:15.533Z,0.0000
2023-05-14T02:39:15.890Z,0.0000
2023-05-14T02:40:16.811Z,0.0000
2023-05-14T02:41:18.317Z,0.0000
2023-05-14T02:42:19.274Z,0.0000
2023-05-14T02:44:20.862Z,0.0000
2023-05-14T02:45:21.324Z,0.0000
2023-05-14T02:46:21.614Z,0.0000
2023-05-14T02:47:22.696Z,0.0000
2023-05-14T02:48:23.393Z,0.0000
2023-05-14T02:49:24.580Z,0.0000
2023-05-14T02:50:25.273Z,0.0000
2023-05-14T02:51:25.468Z,0.0000
2023-05-14T02:52:26.180Z,0.0000
2023-05-14T02:53:26.880Z,0.0000
2023-05-14T02:54:27.433Z,0.0000
2023-05-14T02:55:28.465Z,0.0000
2023-05-14T02:56:29.219Z,0.0000
2023-05-14T02:57:29.320Z,0.0000
2023-05-14T02:58:30.227Z,0.0000
2023-05-14T02:59:30.507Z,0.0000
2023-05-14T03:00:30.539Z,0.0000
2023-05-14T03:01:31.345Z,0.0000
2023-05-14T03:02:32.162Z,0.0000
2023-05-14T03:11:42.262Z,0.0000
2023-05-14T03:13:41.998Z,0.0000
2023-05-14T03:14:43.517Z,0.0000
2023-05-14T03:15:44.774Z,0.0000
2023-05-14T03:16:45.620Z,0.0000
2023-05-14T03:17:46.821Z,0.0000
2023-05-14T03:21:48.335Z,0.0000
2023-05-14T03:22:49.175Z,0.0000
2023-05-14T03:23:49.930Z,0.0000
2023-05-14T03:24:50.183Z,0.0000
2023-05-14T03:25:50.538Z,0.0000
2023-05-14T03:26:51.920Z,0.0000
2023-05-14T03:31:55.725Z,0.0000
2023-05-14T03:42:02.944Z,5.6250
2023-05-14T03:43:03.437Z,5.6250
2023-05-14T03:44:03.657Z,5.6250
2023-05-14T03:45:04.532Z,5.6250
2023-05-14T03:46:05.442Z,5.6250
2023-05-14T03:48:06.331Z,9.8110
2023-05-14T03:49:06.941Z,11.2500
2023-05-14T03:51:06.722Z,11.2500
2023-05-14T03:52:10.597Z,11.2500
2023-05-14T03:54:09.318Z,16.8750
2023-05-14T04:02:13.972Z,28.2500
2023-05-14T04:03:14.707Z,33.7500
2023-05-14T04:04:15.790Z,33.7500
2023-05-14T04:05:17.190Z,35.9233
2023-05-14T04:07:18.093Z,39.6250
2023-05-14T04:08:19.112Z,45.0000
2023-05-14T04:10:20.317Z,50.1250
2023-05-14T04:11:20.547Z,50.6250
2023-05-14T04:12:20.559Z,54.8750
2023-05-14T04:13:22.097Z,56.2500
2023-05-14T04:14:22.815Z,56.2500
2023-05-14T04:18:24.553Z,57.4006
2023-05-14T04:19:24.650Z,61.8750
2023-05-14T04:20:24.886Z,65.8381
2023-05-14T04:21:26.125Z,70.6960
2023-05-14T04:22:26.361Z,75.0000
2023-05-14T04:23:26.604Z,78.7500
2023-05-14T04:24:27.786Z,84.1250
2023-05-14T04:30:32.613Z,90.0000
2023-05-14T04:31:34.567Z,90.0000
2023-05-14T04:35:35.708Z,101.2500
2023-05-14T04:36:36.442Z,104.7500
2023-05-14T04:37:37.129Z,106.8750
2023-05-14T04:38:37.312Z,111.5000
2023-05-14T04:43:40.252Z,106.3750
2023-05-14T04:49:44.212Z,119.4701
2023-05-14T04:50:45.274Z,134.1051
2023-05-14T04:51:46.112Z,153.1534
2023-05-14T04:52:46.802Z,172.0000
2023-05-14T04:53:47.762Z,182.5568
2023-05-14T04:54:47.508Z,195.2131
2023-05-14T04:55:48.448Z,212.0000
2023-05-14T05:01:53.309Z,262.0000
2023-05-14T05:13:02.079Z,303.7500
2023-05-14T05:14:02.749Z,303.7500
2023-05-14T05:16:02.808Z,299.7500
2023-05-14T05:17:03.271Z,296.1685
2023-05-14T05:18:04.807Z,292.9891
2023-05-14T05:19:05.908Z,292.5000
2023-05-14T05:20:06.790Z,292.5000
2023-05-14T05:21:07.254Z,292.1165
2023-05-14T05:28:10.863Z,309.6250
2023-05-14T05:29:11.186Z,298.6483
2023-05-14T05:30:11.783Z,285.2500
2023-05-14T05:31:13.169Z,281.3723
2023-05-14T05:33:13.229Z,300.7500
2023-05-14T05:35:13.941Z,364.7500
2023-05-14T05:36:14.593Z,397.0000
2023-05-14T05:37:15.910Z,420.4076
2023-05-14T05:51:27.929Z,507.7174
2023-05-14T05:52:28.720Z,549.7500
2023-05-14T05:53:29.423Z,575.5398
2023-05-14T05:54:30.054Z,592.1250
2023-05-14T05:55:31.285Z,608.8451
2023-05-14T05:56:32.560Z,622.7500
2023-05-14T05:57:32.623Z,635.3693
2023-05-14T05:58:33.280Z,636.2500
2023-05-14T05:59:34.007Z,608.0000
2023-05-14T06:09:38.585Z,270.5000
2023-05-14T06:10:39.137Z,250.5087
2023-05-14T06:11:39.382Z,224.7443
2023-05-14T06:12:39.965Z,205.3750
2023-05-14T06:13:40.738Z,205.2500
2023-05-14T06:14:41.188Z,207.1250
2023-05-14T06:15:43.053Z,202.5000
2023-05-14T06:16:44.407Z,204.5000
2023-05-14T06:17:44.854Z,212.5994
2023-05-14T06:18:45.803Z,218.8636
2023-05-14T06:19:46.352Z,218.2500
2023-05-14T06:20:46.527Z,213.7500
2023-05-14T06:22:49.843Z,214.8505
2023-05-14T06:23:50.302Z,219.3750
2023-05-14T06:24:50.358Z,216.4347
2023-05-14T06:26:54.662Z,202.3750
2023-05-14T06:27:55.006Z,187.7500
2023-05-14T06:28:55.091Z,180.0000
2023-05-14T06:30:57.474Z,199.0483
2023-05-14T06:31:57.812Z,228.0000
2023-05-14T06:34:01.022Z,351.9460
2023-05-14T06:35:02.108Z,364.4744
2023-05-14T06:37:02.866Z,354.3750
2023-05-14T06:38:02.934Z,334.7529
2023-05-14T06:39:03.690Z,310.2500
2023-05-14T06:40:05.186Z,308.3523
2023-05-14T06:41:05.350Z,337.3722
2023-05-14T06:43:07.611Z,418.4738
2023-05-14T06:48:17.027Z,431.5000
2023-05-14T06:49:17.961Z,439.0116
2023-05-14T06:50:18.883Z,430.3125
2023-05-14T06:54:38.691Z,488.7209
2023-05-14T06:55:39.799Z,465.4360
2023-05-14T06:56:40.053Z,448.5938
2023-05-14T06:57:41.024Z,475.4403
2023-05-14T06:58:42.843Z,511.1079
2023-05-14T07:00:42.978Z,512.0029
2023-05-14T07:01:44.088Z,519.8011
2023-05-14T07:02:45.032Z,553.4233
2023-05-14T07:09:26.055Z,461.2500
2023-05-14T07:10:28.654Z,460.0727
2023-05-14T07:18:08.915Z,537.5145
2023-05-14T07:19:09.746Z,488.4801
2023-05-14T07:20:11.216Z,443.1250
2023-05-14T07:21:11.335Z,448.4302
2023-05-14T07:22:12.969Z,520.5000
2023-05-14T07:23:13.756Z,550.2035
2023-05-14T07:25:14.655Z,535.6250
2023-05-14T07:26:14.711Z,570.3488
2023-05-14T07:27:15.726Z,652.7500
2023-05-14T07:28:17.188Z,734.8750
2023-05-14T07:29:17.237Z,830.3571
2023-05-14T07:30:17.693Z,1006.4825
2023-05-14T07:31:19.364Z,1126.6250
2023-05-14T07:32:20.246Z,1156.4733
2023-05-14T07:36:21.477Z,1218.2500
2023-05-14T07:38:22.457Z,1077.2500
2023-05-14T07:39:22.758Z,949.0552
2023-05-14T07:40:23.081Z,943.4659
2023-05-14T07:46:25.179Z,1458.5370
2023-05-14T07:47:26.518Z,1777.1165
2023-05-14T07:48:27.015Z,1531.4390
2023-05-14T07:49:27.935Z,1597.3722
2023-05-14T07:50:29.142Z,1848.7936
2023-05-14T07:51:30.206Z,1684.0483
2023-05-14T07:52:31.957Z,2067.1875
2023-05-14T07:53:32.585Z,2652.3154
2023-05-14T07:54:33.388Z,2284.6658
2023-05-14T07:55:34.145Z,2854.9431
2023-05-14T07:56:46.949Z,2637.8633
2023-05-14T08:06:54.103Z,2015.5814
2023-05-14T08:10:56.994Z,1238.2849
2023-05-14T08:13:57.140Z,2049.2898
2023-05-14T08:14:57.616Z,1608.7500
2023-05-14T08:15:57.624Z,1869.8546
2023-05-14T08:16:58.854Z,1071.3068
2023-05-14T08:17:59.454Z,878.9062
2023-05-14T08:19:00.497Z,932.7273
2023-05-14T08:20:01.839Z,1166.6827
2023-05-14T08:21:05.408Z,1554.2898
2023-05-14T08:22:06.196Z,2582.2585
2023-05-14T08:23:07.412Z,2097.8694
2023-05-14T08:25:10.066Z,2393.4375
2023-05-14T08:26:10.436Z,1693.0000
2023-05-14T08:29:46.208Z,1285.2439
2023-05-14T08:30:46.630Z,1310.3693
2023-05-14T08:31:46.858Z,1343.0669
2023-05-14T08:32:47.489Z,1348.7019
2023-05-14T08:33:48.502Z,1356.8750
2023-05-14T08:34:50.003Z,1314.1250
2023-05-14T08:36:55.195Z,1150.3125
2023-05-14T08:37:55.678Z,1020.5540
2023-05-14T08:38:56.018Z,1029.3750
2023-05-14T08:39:56.454Z,1103.9062
2023-05-14T08:40:56.939Z,1238.1541
2023-05-14T08:41:57.801Z,1359.7159
2023-05-14T08:42:58.951Z,1358.0000
2023-05-14T08:43:59.736Z,1403.4375
2023-05-14T08:45:00.781Z,1506.0938
2023-05-14T08:46:01.897Z,1549.7500
2023-05-14T08:47:02.246Z,1630.0726
2023-05-14T08:48:04.863Z,1661.2926
2023-05-14T08:50:03.718Z,1746.0511
2023-05-14T08:51:04.191Z,1827.3401
2023-05-14T08:52:04.948Z,1921.6608
2023-05-14T08:53:05.528Z,1970.1562
2023-05-14T08:54:05.723Z,1946.8892
2023-05-14T08:55:06.651Z,1882.8052
2023-05-14T08:56:06.526Z,1871.5178
2023-05-14T08:57:07.012Z,1886.2958
2023-05-14T09:05:14.789Z,4147.6338
2023-05-14T09:06:15.580Z,4106.7734
2023-05-14T09:07:16.249Z,3560.6250
2023-05-14T09:09:04.183Z,1983.3750
2023-05-14T09:10:04.608Z,2092.3691
2023-05-14T09:11:06.628Z,2092.3721
2023-05-14T09:12:07.477Z,2512.9688
2023-05-14T09:13:08.683Z,1830.9375
2023-05-14T09:14:09.880Z,3496.6570
2023-05-14T09:15:10.941Z,2405.3572
2023-05-14T09:16:12.466Z,1825.8239
2023-05-14T09:17:12.255Z,1622.6163
2023-05-14T09:18:13.495Z,1590.9801
2023-05-14T09:19:14.227Z,1475.3198
2023-05-14T09:20:15.167Z,1371.3226
2023-05-14T09:24:04.407Z,1434.0865
2023-05-14T09:30:09.629Z,1284.4176
2023-05-14T09:31:09.740Z,1206.1046
2023-05-14T09:33:09.799Z,1069.7727
2023-05-14T09:35:10.686Z,1125.3835
2023-05-14T09:36:11.969Z,1244.4034
2023-05-14T09:37:12.892Z,1307.5000
2023-05-14T09:43:22.971Z,1790.9233
2023-05-14T09:46:26.617Z,1947.9120
2023-05-14T09:47:26.917Z,1999.4913
2023-05-14T09:48:26.985Z,2311.3518
2023-05-14T09:49:27.810Z,2244.5029
2023-05-14T09:51:29.033Z,2674.2188
2023-05-14T09:52:29.700Z,2220.3408
2023-05-14T09:53:30.756Z,2211.5408
2023-05-14T09:57:58.389Z,1691.0796
2023-05-14T09:58:58.897Z,1806.1483
2023-05-14T10:00:00.001Z,1798.7216
2023-05-14T10:01:01.078Z,1750.9091
2023-05-14T10:02:02.260Z,1680.2678
2023-05-14T10:03:02.262Z,1589.6511
2023-05-14T10:04:04.057Z,1487.6067
2023-05-14T10:05:05.262Z,1457.7699
2023-05-14T10:06:05.399Z,1370.7994
2023-05-14T10:07:06.413Z,1275.5966
2023-05-14T10:08:06.792Z,1286.5552
2023-05-14T10:09:07.405Z,1300.3977
2023-05-14T10:10:08.514Z,1302.9070
2023-05-14T10:12:09.651Z,1330.4403
2023-05-14T10:13:10.601Z,1543.2354
2023-05-14T10:16:41.015Z,1422.8693
2023-05-14T10:17:41.149Z,1496.2500
2023-05-14T10:18:42.303Z,1701.4347
2023-05-14T10:19:43.166Z,1851.0085
2023-05-14T10:20:44.306Z,1900.7386
2023-05-14T10:21:45.144Z,1803.4011
2023-05-14T10:22:45.408Z,1703.3285
2023-05-14T10:29:25.077Z,1767.0171
2023-05-14T10:30:26.446Z,1798.2500
2023-05-14T10:31:26.430Z,1758.5320
2023-05-14T10:32:27.166Z,1717.0312
2023-05-14T10:33:27.679Z,1688.4156
2023-05-14T10:34:29.008Z,1661.1648
2023-05-14T10:35:30.244Z,1697.3750
2023-05-14T10:36:31.102Z,1694.0199
2023-05-14T10:37:31.752Z,1716.3921
2023-05-14T10:42:20.660Z,1895.7812
2023-05-14T10:51:07.710Z,1840.7812
2023-05-14T10:52:07.749Z,1828.3866
2023-05-14T10:53:08.717Z,1819.3750
2023-05-14T10:54:09.123Z,1824.2898
2023-05-14T10:55:10.404Z,1837.9360
2023-05-14T10:56:10.629Z,1857.2965
2023-05-14T10:57:11.346Z,1797.5710
2023-05-14T10:58:11.531Z,1820.9659
2023-05-14T10:59:12.615Z,1947.1449
2023-05-14T11:00:13.273Z,1937.0454
2023-05-14T11:01:13.329Z,1768.9971
2023-05-14T11:02:15.901Z,1732.7557
2023-05-14T11:06:40.378Z,3965.1809
2023-05-14T11:10:41.680Z,4345.7705
2023-05-14T11:11:42.771Z,4458.0684
2023-05-14T11:12:43.440Z,3669.3313
2023-05-14T11:13:44.244Z,2818.7642
2023-05-14T11:18:48.534Z,1237.2443
2023-05-14T11:19:50.461Z,1046.3809
2023-05-14T11:31:31.454Z,900.1250
2023-05-14T11:32:31.719Z,930.0872
2023-05-14T11:33:33.341Z,960.4688
2023-05-14T11:34:33.322Z,1004.1279
2023-05-14T11:35:34.284Z,1047.6562
2023-05-14T11:36:36.277Z,1085.0000
2023-05-14T11:38:36.441Z,1172.7404
2023-05-14T11:41:39.737Z,1360.6108
2023-05-14T11:43:45.782Z,1387.7028
2023-05-14T11:48:53.674Z,1176.9034
2023-05-14T11:49:53.924Z,1156.7500
2023-05-14T11:51:29.098Z,1073.1588
2023-05-14T11:53:33.493Z,1041.5000
2023-05-14T11:55:31.290Z,1235.8380
2023-05-14T11:58:32.230Z,1627.9796
2023-05-14T11:59:33.201Z,1720.7386
2023-05-14T12:01:34.298Z,1813.6790
2023-05-14T12:02:35.234Z,1804.8579
2023-05-14T12:03:35.821Z,1769.9128
2023-05-14T12:04:35.482Z,1640.4070
2023-05-14T12:05:36.148Z,1350.1278
2023-05-14T12:06:38.167Z,959.1904
2023-05-14T12:07:37.924Z,607.0982
2023-05-14T12:12:40.472Z,252.3913
2023-05-14T12:13:41.867Z,231.2364
2023-05-14T12:14:42.592Z,225.6114
2023-05-14T12:21:54.434Z,238.6250
2023-05-14T12:22:55.209Z,260.8430
2023-05-14T12:23:55.923Z,285.9593
2023-05-14T12:24:57.145Z,317.6847
2023-05-14T12:25:57.719Z,352.1512
2023-05-14T12:26:58.028Z,381.2946
2023-05-14T12:27:58.380Z,405.1278
2023-05-14T12:28:59.170Z,435.6818
2023-05-14T12:30:09.203Z,466.7472
2023-05-14T12:31:00.486Z,497.5403
2023-05-14T12:33:02.928Z,515.5000
2023-05-14T12:34:04.087Z,520.2500
2023-05-14T12:36:20.746Z,516.4535
2023-05-14T12:37:07.549Z,516.3750
2023-05-14T12:38:07.682Z,512.3983
2023-05-14T12:39:08.894Z,511.6250
2023-05-14T12:40:10.353Z,513.7926
2023-05-14T12:41:11.491Z,532.7131
2023-05-14T12:42:12.172Z,558.9680
2023-05-14T12:43:12.506Z,602.6599
2023-05-14T12:45:13.720Z,718.5938
2023-05-14T12:49:17.886Z,918.8750
2023-05-14T12:51:19.740Z,962.7699
2023-05-14T12:53:24.058Z,982.1799
2023-05-14T12:56:25.357Z,944.3608
2023-05-14T12:58:26.328Z,854.3750
2023-05-14T12:59:26.587Z,810.6541
2023-05-14T13:00:26.922Z,777.4006
2023-05-14T13:01:27.608Z,746.0795
2023-05-14T13:02:28.637Z,732.2965
2023-05-14T13:03:29.138Z,711.4904
2023-05-14T13:04:30.438Z,699.1619
2023-05-14T13:05:31.541Z,692.3864
2023-05-14T13:06:32.491Z,707.0881
2023-05-14T13:07:32.957Z,732.0170
2023-05-14T13:08:33.400Z,758.8636
2023-05-14T13:09:33.980Z,785.7994
2023-05-14T13:10:34.598Z,818.8210
2023-05-14T13:17:42.272Z,1113.3665
2023-05-14T13:19:42.870Z,1222.4148
2023-05-14T13:20:43.482Z,1270.7386
2023-05-14T13:21:44.105Z,1308.6628
2023-05-14T13:22:44.853Z,1342.2820
2023-05-14T13:24:46.768Z,1397.4290
2023-05-14T13:27:47.396Z,1465.5000
2023-05-14T13:29:48.274Z,1525.1250
2023-05-14T13:36:53.498Z,1860.2130
2023-05-14T13:37:54.516Z,1844.6250
2023-05-14T13:38:55.648Z,1818.5370
2023-05-14T13:39:55.921Z,1813.1676
2023-05-14T13:40:56.322Z,1808.1105
2023-05-14T13:41:56.628Z,1810.9943
2023-05-14T13:42:57.701Z,1828.6250
2023-05-14T13:43:58.388Z,1835.9233
2023-05-14T13:45:58.741Z,1820.5824
2023-05-14T13:46:58.944Z,1823.5465
2023-05-14T13:47:59.526Z,1847.7471
2023-05-14T13:48:59.625Z,1859.3895
2023-05-14T13:50:00.865Z,1895.3634
2023-05-14T13:51:02.019Z,1896.2642
2023-05-14T13:52:02.447Z,1850.7528
2023-05-14T13:53:03.301Z,1810.3551
2023-05-14T13:54:04.301Z,1851.9642
2023-05-14T13:55:04.976Z,1880.7954
2023-05-14T13:56:05.321Z,2014.3892
2023-05-14T13:57:06.434Z,2086.6194
2023-05-14T13:58:06.861Z,2234.4331
2023-05-14T13:59:06.689Z,2200.7812
2023-05-14T14:00:07.354Z,2405.5823
2023-05-14T14:01:07.701Z,2629.8838
2023-05-14T14:03:08.775Z,3735.2556
2023-05-14T14:04:09.603Z,3569.4460
2023-05-14T14:05:10.144Z,3136.8323
2023-05-14T14:06:10.472Z,2954.6592
2023-05-14T14:07:11.301Z,3381.7756
2023-05-14T14:08:23.473Z,3670.2322
2023-05-14T14:09:19.039Z,3263.2031
2023-05-14T14:12:20.772Z,2290.5256
2023-05-14T14:13:21.778Z,2109.3750
2023-05-14T14:14:20.932Z,2018.8517
2023-05-14T14:15:20.937Z,2235.7412
2023-05-14T14:16:22.129Z,2621.7615
2023-05-14T14:17:23.109Z,3668.5227
2023-05-14T14:25:28.709Z,2362.7556
2023-05-14T14:26:28.718Z,2607.9070
2023-05-14T14:27:29.449Z,2164.9858
2023-05-14T14:28:29.759Z,2019.3750
2023-05-14T14:29:29.853Z,1942.5872
2023-05-14T14:30:30.958Z,1922.1250
2023-05-14T14:31:31.860Z,2075.2327
2023-05-14T14:32:33.058Z,1897.5426
2023-05-14T14:33:33.480Z,1654.5349
2023-05-14T14:34:34.567Z,1530.2557
2023-05-14T14:35:35.329Z,1410.6976
2023-05-14T14:36:35.785Z,1324.0483
2023-05-14T14:37:37.340Z,1303.5938
2023-05-14T14:44:39.665Z,566.7188
2023-05-14T14:45:40.014Z,483.1108
2023-05-14T14:46:41.032Z,399.6250
2023-05-14T14:47:42.171Z,320.4972
2023-05-14T14:48:42.501Z,248.5227
2023-05-14T14:49:43.372Z,187.0000
2023-05-14T14:50:43.824Z,136.8314
2023-05-14T14:51:45.472Z,115.5682
2023-05-14T14:52:46.742Z,114.4176
2023-05-14T14:53:47.152Z,127.4574
2023-05-14T14:54:47.356Z,141.1364
2023-05-14T14:55:48.613Z,146.2500
2023-05-14T14:56:49.833Z,148.1676
2023-05-14T14:57:51.061Z,148.2955
2023-05-14T14:58:51.011Z,146.1222
2023-05-14T14:59:51.059Z,142.2869
2023-05-14T15:00:52.163Z,143.8750
2023-05-14T15:01:52.667Z,144.0767
2023-05-14T15:02:52.930Z,143.8954
2023-05-14T15:03:54.010Z,139.3466
2023-05-14T15:04:54.753Z,139.9858
2023-05-14T15:05:55.498Z,140.6250
2023-05-14T15:06:55.902Z,144.7159
2023-05-14T15:07:56.360Z,146.1222
2023-05-14T15:08:57.465Z,150.9801
2023-05-14T15:09:58.014Z,155.3267
2023-05-14T15:10:58.208Z,168.6222
2023-05-14T15:11:58.437Z,176.0756
2023-05-14T15:12:58.534Z,179.6076
2023-05-14T15:13:59.154Z,188.4375
2023-05-14T15:14:59.615Z,194.5204
2023-05-14T15:16:00.701Z,203.6506
2023-05-14T15:17:01.240Z,205.9517
2023-05-14T15:18:02.418Z,205.9517
2023-05-14T15:19:02.691Z,203.9389
2023-05-14T15:20:03.305Z,207.8571
2023-05-14T15:21:04.445Z,208.2528
2023-05-14T15:22:04.440Z,208.1250
2023-05-14T15:23:05.124Z,204.6733
2023-05-14T15:24:05.786Z,199.8153
2023-05-14T15:25:05.997Z,193.9347
2023-05-14T15:26:06.025Z,186.0174
2023-05-14T15:27:07.096Z,178.1250
2023-05-14T15:28:08.216Z,171.4347
2023-05-14T15:29:08.455Z,165.1705
2023-05-14T15:30:09.203Z,159.3314
2023-05-14T15:31:10.253Z,155.7102
2023-05-14T15:32:11.610Z,151.8750
2023-05-14T15:33:12.387Z,151.8750
2023-05-14T15:34:14.053Z,151.8750
2023-05-14T15:35:13.751Z,151.8750
2023-05-14T15:36:14.213Z,155.9302
2023-05-14T15:37:14.290Z,161.6861
2023-05-14T15:38:15.311Z,176.8605
2023-05-14T15:39:15.696Z,196.3636
2023-05-14T15:40:16.000Z,218.7209
2023-05-14T15:41:17.366Z,244.1761
2023-05-14T15:43:18.195Z,288.8750
2023-05-14T15:45:20.945Z,335.9659
2023-05-14T15:46:22.054Z,377.5142
2023-05-14T15:47:22.791Z,408.3239
2023-05-14T15:48:23.848Z,446.6250
2023-05-14T15:49:24.193Z,490.0291
2023-05-14T15:50:25.276Z,531.0511
2023-05-14T15:51:25.122Z,545.1017
2023-05-14T15:52:26.116Z,541.9176
2023-05-14T15:53:26.977Z,518.7500
2023-05-14T15:54:27.835Z,497.3011
2023-05-14T15:55:28.098Z,501.2791
2023-05-14T15:56:28.931Z,518.5227
2023-05-14T15:57:29.790Z,538.1250
2023-05-14T15:58:29.856Z,547.5426
2023-05-14T15:59:30.890Z,555.5966
2023-05-14T16:00:32.024Z,555.2500
2023-05-14T16:01:32.556Z,548.1105
2023-05-14T16:02:33.449Z,542.0455
2023-05-14T16:03:34.067Z,527.3438
2023-05-14T16:04:34.371Z,502.3256
2023-05-14T16:05:35.517Z,466.6193
2023-05-14T16:06:36.278Z,411.8023
2023-05-14T16:07:37.534Z,335.8929
2023-05-14T16:08:38.275Z,263.3285
2023-05-14T16:09:38.778Z,211.1932
2023-05-14T16:10:39.668Z,182.0930
2023-05-14T16:11:39.885Z,164.3023
2023-05-14T16:12:40.790Z,157.5000
2023-05-14T16:14:42.079Z,161.2074
2023-05-14T16:16:42.776Z,174.3750
2023-05-14T16:17:44.504Z,169.0116
2023-05-14T16:18:45.368Z,150.9593
2023-05-14T16:19:45.783Z,124.4041
2023-05-14T16:20:46.731Z,105.8523
2023-05-14T16:21:47.211Z,96.0085
2023-05-14T16:22:47.841Z,93.3239
2023-05-14T16:23:48.648Z,105.8523
2023-05-14T16:24:49.149Z,124.6657
2023-05-14T16:25:50.498Z,136.4062
2023-05-14T16:27:50.759Z,135.8949
2023-05-14T16:28:52.335Z,115.8239
2023-05-14T16:29:52.762Z,97.0982
2023-05-14T16:30:53.926Z,88.8494
2023-05-14T16:31:54.946Z,90.0000
2023-05-14T16:32:56.051Z,90.0000
2023-05-14T16:33:57.194Z,93.7074
2023-05-14T16:34:57.652Z,94.8580
2023-05-14T16:35:58.169Z,95.6250
2023-05-14T16:38:00.089Z,93.0682
2023-05-14T16:39:07.314Z,92.5000
2023-05-14T16:40:03.325Z,86.7656
2023-05-14T16:41:03.843Z,84.3750
2023-05-14T16:42:03.932Z,80.7122
2023-05-14T16:43:04.809Z,78.7500
2023-05-14T16:44:05.044Z,75.3488
2023-05-14T16:45:05.805Z,68.6506
2023-05-14T16:46:06.497Z,67.5000
2023-05-14T16:47:07.231Z,64.4913
2023-05-14T16:49:08.146Z,61.8750
2023-05-14T16:52:09.814Z,61.8750
2023-05-14T16:53:10.128Z,61.8750
2023-05-14T16:54:10.276Z,61.8750
2023-05-14T16:57:13.330Z,61.8750
2023-05-14T16:58:14.193Z,61.8750
2023-05-14T16:59:15.334Z,61.3636
2023-05-14T17:00:16.442Z,56.2500
2023-05-14T17:01:17.833Z,54.6037
2023-05-14T17:02:18.638Z,50.6250
2023-05-14T17:03:18.681Z,47.3547
2023-05-14T17:04:19.321Z,43.7216
2023-05-14T17:05:19.690Z,39.3750
2023-05-14T17:06:20.564Z,39.3750
2023-05-14T17:07:21.362Z,39.3750
2023-05-14T17:08:22.681Z,39.3750
2023-05-14T17:09:24.115Z,39.3750
2023-05-14T17:10:24.450Z,39.3750
2023-05-14T17:11:25.543Z,39.3750
2023-05-14T17:12:25.746Z,40.0142
2023-05-14T17:15:28.129Z,45.0000
2023-05-14T17:16:27.870Z,48.4012
2023-05-14T17:17:28.761Z,50.6250
2023-05-14T17:19:29.431Z,54.1250
2023-05-14T17:20:29.911Z,56.2500
2023-05-14T17:22:32.389Z,58.6790
2023-05-14T17:23:32.565Z,61.8750
2023-05-14T17:24:32.630Z,65.9659
2023-05-14T17:25:33.398Z,68.9390
2023-05-14T17:27:36.861Z,78.6058
2023-05-14T17:28:38.013Z,82.9688
2023-05-14T17:29:39.351Z,84.3750
2023-05-14T17:30:39.416Z,84.3750
2023-05-14T17:31:40.269Z,84.3750
2023-05-14T17:32:41.621Z,84.3750
2023-05-14T17:33:42.600Z,84.3750
2023-05-14T17:34:43.595Z,84.3750
2023-05-14T17:35:44.463Z,85.6534
2023-05-14T17:36:44.371Z,86.8605
2023-05-14T17:37:45.120Z,90.0000
2023-05-14T17:38:47.508Z,93.0682
2023-05-14T17:48:53.030Z,129.3750
2023-05-14T17:49:53.201Z,132.8267
2023-05-14T17:50:54.249Z,138.0682
2023-05-14T17:51:55.167Z,143.3097
2023-05-14T17:52:56.789Z,146.7614
2023-05-14T17:53:56.383Z,152.1307
2023-05-14T17:54:57.246Z,151.8750
2023-05-14T17:55:57.346Z,147.6889
2023-05-14T17:56:58.110Z,139.7500
2023-05-14T17:57:59.321Z,132.2500
2023-05-14T17:59:00.055Z,125.9233
2023-05-14T18:00:01.183Z,123.2500
2023-05-14T18:01:01.301Z,118.1250
2023-05-14T18:02:01.942Z,118.1250
2023-05-14T18:03:02.360Z,118.1250
2023-05-14T18:04:02.549Z,117.8693
2023-05-14T18:05:02.998Z,112.5000
2023-05-14T18:06:03.592Z,111.0610
2023-05-14T18:07:04.522Z,104.6250
2023-05-14T18:08:05.957Z,101.5000
2023-05-14T18:09:07.105Z,106.1080
2023-05-14T18:10:07.167Z,111.9767
2023-05-14T18:11:07.917Z,120.8750
2023-05-14T18:12:08.697Z,126.0511
2023-05-14T18:13:09.675Z,135.1278
2023-05-14T18:14:11.055Z,140.6250
2023-05-14T18:15:11.328Z,140.6250
2023-05-14T18:16:12.015Z,140.7528
2023-05-14T18:17:12.367Z,133.5938
2023-05-14T18:18:12.655Z,123.4884
2023-05-14T18:19:13.387Z,110.5000
2023-05-14T18:20:13.487Z,100.4651
2023-05-14T18:21:14.830Z,83.7358
2023-05-14T18:23:15.340Z,58.1676
2023-05-14T18:24:16.039Z,55.7267
2023-05-14T18:25:16.636Z,49.6023
2023-05-14T18:26:18.008Z,43.3750
2023-05-14T18:28:19.014Z,33.7500
2023-05-14T18:29:19.918Z,33.7500
2023-05-14T18:30:20.327Z,31.1932
2023-05-14T18:31:21.041Z,28.1250
2023-05-14T18:32:21.202Z,28.1250
2023-05-14T18:42:12.675Z,11.2500
2023-05-14T18:43:13.708Z,11.2500
2023-05-14T18:44:13.862Z,11.2500
2023-05-14T18:45:14.512Z,11.2500
2023-05-14T18:46:16.056Z,7.4148
2023-05-14T18:47:17.084Z,5.6250
2023-05-14T18:48:17.150Z,5.6250